Time;durP1;ratioP1;P1;durP2;ratioP2;P2;SDS_P1;SDS_P2;PMS_P1;PMS_P2;Temp;Humidity;BMP_temperature;BMP_pressure;BME280_temperature;BME280_humidity;BME280_pressure;Samples;Min_cycle;Max_cycle;Signal;HPM_P1;HPM_P2
2023/06/04 00:02:21;;;;;;;1.10;1.10;;;17.40;68.60;;;17.83;nan;100703.59;5024017;28;20625;-68
2023/06/04 00:04:48;;;;;;;1.40;1.30;;;17.40;68.80;;;17.78;nan;100711.97;5033774;28;20684;-67
2023/06/04 00:07:16;;;;;;;1.57;1.20;;;17.30;68.90;;;17.72;nan;100714.38;5031033;28;20640;-67
2023/06/04 00:09:43;;;;;;;1.07;1.07;;;17.20;69.00;;;17.73;nan;100705.50;5013784;28;20629;-67
2023/06/04 00:12:10;;;;;;;1.27;1.27;;;17.20;69.00;;;17.69;nan;100712.06;5014922;28;20631;-67
2023/06/04 00:14:37;;;;;;;1.10;1.10;;;17.20;68.90;;;17.66;nan;100705.28;5013649;28;20585;-65
2023/06/04 00:17:05;;;;;;;2.60;1.00;;;17.30;69.00;;;17.66;nan;100701.81;5028774;28;21022;-67
2023/06/04 00:19:33;;;;;;;1.00;1.00;;;17.20;68.90;;;17.66;nan;100705.28;5032083;28;20624;-66
2023/06/04 00:22:00;;;;;;;0.97;0.87;;;17.20;68.80;;;17.63;nan;100715.34;5025472;28;20639;-67
2023/06/04 00:24:27;;;;;;;1.00;1.00;;;17.20;68.90;;;17.60;nan;100698.00;5027734;28;20641;-68
2023/06/04 00:26:54;;;;;;;1.30;1.20;;;17.20;69.00;;;17.61;nan;100701.47;5027804;28;20791;-66
2023/06/04 00:29:21;;;;;;;1.87;1.20;;;17.20;69.00;;;17.61;nan;100701.47;5015447;28;20637;-68
2023/06/04 00:31:48;;;;;;;0.87;0.87;;;17.20;69.00;;;17.60;nan;100700.63;5011913;28;21507;-67
2023/06/04 00:34:17;;;;;;;1.03;1.03;;;17.20;69.00;;;17.56;nan;100693.19;5013095;28;20609;-66
2023/06/04 00:36:44;;;;;;;0.87;0.87;;;17.10;69.10;;;17.53;nan;100699.59;5020067;28;20641;-66
2023/06/04 00:39:11;;;;;;;1.03;0.93;;;17.10;69.30;;;17.52;nan;100694.47;5028247;28;20619;-68
2023/06/04 00:41:39;;;;;;;1.37;1.27;;;17.10;69.40;;;17.51;nan;100698.06;5012969;28;20656;-67
2023/06/04 00:44:06;;;;;;;0.87;0.87;;;17.10;69.30;;;17.49;nan;100707.91;5020235;28;21033;-67
2023/06/04 00:46:35;;;;;;;1.40;1.30;;;17.10;69.60;;;17.49;nan;100703.47;5012258;28;20652;-66
2023/06/04 00:49:06;;;;;;;1.70;1.30;;;17.10;69.70;;;17.46;nan;100698.50;5029586;28;20691;-66
2023/06/04 00:51:33;;;;;;;5.53;1.10;;;17.00;69.70;;;17.49;nan;100703.47;5019175;28;20673;-67
2023/06/04 00:54:08;;;;;;;2.20;1.10;;;17.10;69.60;;;17.50;nan;100704.34;5019449;28;20632;-67
2023/06/04 00:56:39;;;;;;;2.63;0.97;;;17.10;69.80;;;17.47;nan;100712.53;5028716;28;20636;-67
2023/06/04 00:59:08;;;;;;;1.10;1.10;;;17.10;70.60;;;17.44;nan;100712.84;5021594;28;20703;-67
2023/06/04 01:01:58;;;;;;;1.63;0.80;;;17.00;70.20;;;17.42;nan;100715.59;5034170;28;20664;-67
2023/06/04 01:04:48;;;;;;;2.60;0.90;;;17.00;70.00;;;17.42;nan;100712.97;5010680;28;20589;-68
2023/06/04 01:07:17;;;;;;;1.07;1.07;;;17.00;70.00;;;17.42;nan;100723.53;5011324;28;20684;-66
2023/06/04 01:09:45;;;;;;;1.07;0.97;;;17.00;70.10;;;17.45;nan;100722.41;5011657;28;20624;-64
2023/06/04 01:12:12;;;;;;;1.70;1.00;;;17.00;70.00;;;17.42;nan;100723.53;5031328;28;20608;-67
2023/06/04 01:14:40;;;;;;;1.03;1.03;;;17.00;69.90;;;17.40;nan;100727.31;5027757;28;20645;-67
2023/06/04 01:17:19;;;;;;;1.00;1.00;;;17.00;69.90;;;17.38;nan;100726.59;5010953;28;20632;-68
2023/06/04 01:20:15;;;;;;;1.10;1.10;;;17.00;70.00;;;17.41;nan;100724.53;5025424;28;20640;-70
2023/06/04 01:22:51;;;;;;;0.93;0.93;;;17.00;69.80;;;17.43;nan;100721.72;5028086;28;21062;-68
2023/06/04 01:25:38;;;;;;;4.60;1.30;;;17.00;69.60;;;17.34;nan;100723.47;5020255;28;20644;-68
2023/06/04 01:28:11;;;;;;;0.70;0.70;;;16.90;69.60;;;17.29;nan;100727.53;5021613;28;20628;-67
2023/06/04 01:30:43;;;;;;;0.90;0.90;;;16.90;69.70;;;17.23;nan;100728.94;5024528;28;20688;-67
2023/06/04 01:33:16;;;;;;;2.10;1.37;;;16.80;70.00;;;17.20;nan;100731.06;5016057;28;20643;-66
2023/06/04 01:35:43;;;;;;;1.13;1.13;;;16.80;70.00;;;17.19;nan;100724.13;5039052;28;20605;-67
2023/06/04 01:38:11;;;;;;;1.27;1.20;;;16.80;70.30;;;17.13;nan;100730.84;5013164;28;21270;-67
2023/06/04 01:40:38;;;;;;;1.10;1.00;;;16.70;70.20;;;17.10;nan;100731.13;5027647;28;20669;-66
2023/06/04 01:43:05;;;;;;;1.57;1.47;;;16.70;70.40;;;17.03;nan;100720.38;5024912;28;20648;-67
2023/06/04 01:45:32;;;;;;;1.23;1.00;;;16.60;70.60;;;16.98;nan;100725.25;5030688;28;20641;-68
2023/06/04 01:48:03;;;;;;;1.10;0.97;;;16.60;70.70;;;16.92;nan;100720.59;5023617;28;20637;-69
2023/06/04 01:50:30;;;;;;;2.17;0.93;;;16.50;70.70;;;16.87;nan;100727.25;5011506;28;20657;-67
2023/06/04 01:52:58;;;;;;;1.10;1.00;;;16.40;70.90;;;16.83;nan;100726.75;5010170;28;20644;-66
2023/06/04 01:55:25;;;;;;;1.27;0.90;;;16.40;70.80;;;16.83;nan;100721.47;5019981;28;21131;-67
2023/06/04 01:57:52;;;;;;;1.10;1.10;;;16.40;71.00;;;16.82;nan;100725.06;5027966;28;20625;-67
2023/06/04 02:00:19;;;;;;;2.03;1.00;;;16.40;71.10;;;16.86;nan;100725.63;5011914;28;20672;-68
2023/06/04 02:02:50;;;;;;;0.90;0.90;;;16.50;70.90;;;16.85;nan;100730.06;5030709;28;20600;-68
2023/06/04 02:05:17;;;;;;;2.33;1.00;;;16.40;71.00;;;16.81;nan;100722.59;5011729;28;20614;-68
2023/06/04 02:07:47;;;;;;;1.10;1.00;;;16.40;71.10;;;16.76;nan;100725.66;5014517;28;20624;-70
2023/06/04 02:10:17;;;;;;;1.30;1.20;;;16.40;71.10;;;16.75;nan;100718.75;5029354;28;20668;-68
2023/06/04 02:13:02;;;;;;;1.00;1.00;;;16.30;71.70;;;16.76;nan;100724.84;5028284;28;20654;-69
2023/06/04 02:15:31;;;;;;;1.20;1.10;;;16.30;71.20;;;16.71;nan;100729.72;5013026;28;20605;-68
2023/06/04 02:18:17;;;;;;;2.67;0.87;;;16.30;71.20;;;16.66;nan;100727.53;5010010;28;20612;-68
2023/06/04 02:20:45;;;;;;;0.97;0.90;;;16.30;71.30;;;16.64;nan;100726.84;5021097;28;21085;-68
2023/06/04 02:23:15;;;;;;;0.70;0.70;;;16.30;71.50;;;16.62;nan;100725.31;5019113;28;21030;-67
2023/06/04 02:25:44;;;;;;;1.07;1.07;;;16.20;71.40;;;16.56;nan;100729.38;5026592;28;20652;-68
2023/06/04 02:28:11;;;;;;;1.90;0.83;;;16.20;71.70;;;16.50;nan;100734.41;5026508;28;20637;-67
2023/06/04 02:30:39;;;;;;;1.07;0.90;;;16.10;71.90;;;16.44;nan;100727.88;5021631;28;20672;-65
2023/06/04 02:33:06;;;;;;;1.30;0.80;;;16.00;72.60;;;16.41;nan;100736.06;5024892;28;20624;-67
2023/06/04 02:35:33;;;;;;;1.00;0.87;;;16.00;72.30;;;16.38;nan;100733.72;5019334;28;21197;-67
2023/06/04 02:38:00;;;;;;;0.87;0.87;;;16.00;72.30;;;16.37;nan;100726.81;5026661;28;20620;-68
2023/06/04 02:40:30;;;;;;;1.30;1.20;;;16.00;72.10;;;16.33;nan;100730.72;5028311;28;20660;-68
2023/06/04 02:42:57;;;;;;;0.80;0.80;;;15.90;71.90;;;16.27;nan;100728.63;5029875;28;20624;-67
2023/06/04 02:45:26;;;;;;;1.10;1.10;;;15.90;71.90;;;16.23;nan;100730.72;5029571;28;21063;-65
2023/06/04 02:47:53;;;;;;;1.23;1.13;;;15.80;71.90;;;16.22;nan;100733.50;5025922;28;20648;-67
2023/06/04 02:50:20;;;;;;;1.00;1.00;;;15.80;71.80;;;16.15;nan;100728.00;5015297;28;20662;-68
2023/06/04 02:52:47;;;;;;;0.80;0.80;;;15.80;71.60;;;16.11;nan;100725.78;5023816;28;20644;-67
2023/06/04 02:55:15;;;;;;;0.87;0.87;;;15.70;71.60;;;16.08;nan;100728.69;5010136;28;20729;-68
2023/06/04 02:57:43;;;;;;;0.90;0.90;;;15.70;71.70;;;16.04;nan;100727.31;5028052;28;20686;-66
2023/06/04 03:00:13;;;;;;;1.10;1.00;;;15.60;71.80;;;15.99;nan;100725.13;5030607;28;20644;-67
2023/06/04 03:02:45;;;;;;;1.47;1.27;;;15.60;71.80;;;15.97;nan;100731.50;5022640;28;20636;-68
2023/06/04 03:05:15;;;;;;;2.93;1.10;;;15.60;71.90;;;16.02;nan;100729.25;5021145;28;21380;-65
2023/06/04 03:07:44;;;;;;;0.73;0.73;;;15.60;71.90;;;16.06;nan;100733.28;5025451;28;21092;-68
2023/06/04 03:10:14;;;;;;;1.33;1.00;;;15.70;71.50;;;16.05;nan;100739.53;5027685;28;20665;-68
2023/06/04 03:12:41;;;;;;;0.80;0.80;;;15.70;71.40;;;16.06;nan;100735.91;5028864;28;20632;-67
2023/06/04 03:15:08;;;;;;;2.57;0.93;;;15.60;71.80;;;16.03;nan;100738.84;5029522;28;20624;-67
2023/06/04 03:17:35;;;;;;;1.10;1.10;;;15.60;71.60;;;15.94;nan;100731.78;5028901;28;21167;-68
2023/06/04 03:20:07;;;;;;;0.87;0.87;;;15.60;71.80;;;15.95;nan;100741.34;5029288;28;20656;-67
2023/06/04 03:22:35;;;;;;;0.90;0.90;;;15.60;71.90;;;15.92;nan;100739.84;5018274;28;20997;-67
2023/06/04 03:25:04;;;;;;;1.13;1.00;;;15.50;71.70;;;15.89;nan;100747.16;5015726;28;20642;-67
2023/06/04 03:27:32;;;;;;;1.43;1.23;;;15.50;72.00;;;15.88;nan;100741.09;5019725;28;20674;-67
2023/06/04 03:29:59;;;;;;;0.83;0.83;;;15.50;72.00;;;15.83;nan;100743.31;5025136;28;20665;-68
2023/06/04 03:32:27;;;;;;;1.60;0.93;;;15.50;71.90;;;15.88;nan;100742.88;5011704;28;20652;-67
2023/06/04 03:34:54;;;;;;;0.90;0.90;;;15.50;71.80;;;15.90;nan;100740.94;5015376;28;20627;-69
2023/06/04 03:37:21;;;;;;;0.80;0.80;;;15.50;71.90;;;15.91;nan;100738.16;5029602;28;20643;-68
2023/06/04 03:39:48;;;;;;;1.60;1.20;;;15.50;71.90;;;15.92;nan;100741.63;5029773;28;21233;-67
2023/06/04 03:42:15;;;;;;;1.30;1.20;;;15.50;71.80;;;15.84;nan;100744.97;5022787;28;20628;-68
2023/06/04 03:44:42;;;;;;;0.90;0.90;;;15.50;71.90;;;15.86;nan;100747.47;5030333;28;20615;-69
2023/06/04 03:47:09;;;;;;;1.37;1.20;;;15.50;71.90;;;15.89;nan;100740.09;5020011;28;21683;-67
2023/06/04 03:49:36;;;;;;;0.83;0.83;;;15.50;71.90;;;15.94;nan;100739.69;5033234;28;20624;-66
2023/06/04 03:52:03;;;;;;;1.03;0.93;;;15.60;71.60;;;15.96;nan;100737.72;5029820;28;20649;-68
2023/06/04 03:54:30;;;;;;;1.90;0.90;;;15.60;71.50;;;15.99;nan;100737.47;5031427;28;20641;-68
2023/06/04 03:56:57;;;;;;;0.90;0.90;;;15.60;71.60;;;16.03;nan;100741.47;5027311;28;20609;-67
2023/06/04 03:59:24;;;;;;;0.80;0.80;;;15.70;71.70;;;16.06;nan;100743.78;5020449;28;20640;-69
2023/06/04 04:01:51;;;;;;;0.97;0.97;;;15.70;71.70;;;16.11;nan;100744.22;5031965;28;21046;-67
2023/06/04 04:04:18;;;;;;;1.00;1.00;;;15.70;71.70;;;16.22;nan;100741.41;5032474;28;20620;-69
2023/06/04 04:06:45;;;;;;;1.00;1.00;;;15.80;71.80;;;16.34;nan;100750.78;5031724;28;20660;-68
2023/06/04 04:09:12;;;;;;;1.13;1.00;;;15.90;71.40;;;16.36;nan;100748.00;5028283;28;20625;-69
2023/06/04 04:11:40;;;;;;;1.00;1.00;;;16.00;71.30;;;16.44;nan;100751.56;5020280;28;21211;-67
2023/06/04 04:14:07;;;;;;;0.97;0.93;;;16.10;71.30;;;16.56;nan;100750.47;5022669;28;20605;-69
2023/06/04 04:16:34;;;;;;;1.00;1.00;;;16.10;71.10;;;16.67;nan;100746.81;5016299;28;20613;-68
2023/06/04 04:19:01;;;;;;;1.17;1.17;;;16.20;71.10;;;16.68;nan;100746.66;5014532;28;20651;-69
2023/06/04 04:21:28;;;;;;;0.97;0.97;;;16.30;70.90;;;16.78;nan;100757.97;5020985;28;20699;-67
2023/06/04 04:23:55;;;;;;;1.03;1.00;;;16.40;70.90;;;16.93;nan;100756.50;5030348;28;20636;-67
2023/06/04 04:26:21;;;;;;;1.13;1.13;;;16.50;70.50;;;17.03;nan;100757.28;5023185;28;20667;-68
2023/06/04 04:28:49;;;;;;;1.17;1.07;;;16.60;70.30;;;17.11;nan;100766.22;5039335;28;20638;-66
2023/06/04 04:31:17;;;;;;;0.90;0.90;;;16.70;69.70;;;17.08;nan;100761.28;5033477;28;21012;-69
2023/06/04 04:33:44;;;;;;;0.97;0.97;;;16.70;69.80;;;16.98;nan;100767.44;5031392;28;20613;-67
2023/06/04 04:36:14;;;;;;;2.33;1.10;;;16.70;70.10;;;16.82;nan;100767.22;5023677;28;20640;-68
2023/06/04 04:38:41;;;;;;;1.27;1.27;;;16.50;70.30;;;16.80;nan;100761.28;5024618;28;20626;-67
2023/06/04 04:41:08;;;;;;;0.87;0.80;;;16.40;70.60;;;16.77;nan;100769.50;5012839;28;20743;-67
2023/06/04 04:43:39;;;;;;;1.03;1.03;;;16.40;70.90;;;16.74;nan;100769.78;5010275;28;20617;-69
2023/06/04 04:46:06;;;;;;;1.20;1.07;;;16.40;71.10;;;16.79;nan;100766.69;5019390;28;20632;-68
2023/06/04 04:48:33;;;;;;;0.90;0.90;;;16.40;71.20;;;16.89;nan;100776.22;5014000;28;21504;-67
2023/06/04 04:51:00;;;;;;;1.03;0.93;;;16.50;71.20;;;16.95;nan;100778.25;5018064;28;20664;-68
2023/06/04 04:53:27;;;;;;;0.80;0.80;;;16.60;71.20;;;17.15;nan;100778.13;5026083;28;21454;-67
2023/06/04 04:55:54;;;;;;;0.80;0.80;;;16.70;71.30;;;17.43;nan;100777.94;5028891;28;20625;-67
2023/06/04 04:58:21;;;;;;;1.17;1.17;;;17.00;70.80;;;17.68;nan;100777.22;5029592;28;20643;-66
2023/06/04 05:00:49;;;;;;;1.00;1.00;;;17.20;70.40;;;18.02;nan;100782.59;5015313;28;20672;-67
2023/06/04 05:03:16;;;;;;;1.00;1.00;;;17.50;69.50;;;18.30;nan;100781.47;5033815;28;20620;-68
2023/06/04 05:05:43;;;;;;;1.63;1.53;;;17.90;68.80;;;18.55;nan;100790.38;5024842;28;21031;-68
2023/06/04 05:08:12;;;;;;;0.83;0.83;;;18.10;68.00;;;18.80;nan;100786.03;5031402;28;20672;-68
2023/06/04 05:10:39;;;;;;;1.33;1.23;;;18.30;67.30;;;18.91;nan;100788.41;5031335;28;20695;-68
2023/06/04 05:13:06;;;;;;;1.00;1.00;;;18.50;66.60;;;18.77;nan;100787.19;5032045;28;20629;-69
2023/06/04 05:15:33;;;;;;;1.03;1.03;;;18.40;66.40;;;18.53;nan;100787.88;5029755;28;20639;-68
2023/06/04 05:18:00;;;;;;;0.90;0.90;;;18.30;67.10;;;18.33;nan;100789.09;5023977;28;20644;-69
2023/06/04 05:20:28;;;;;;;0.97;0.97;;;18.00;67.60;;;18.37;nan;100793.06;5016950;28;20664;-67
2023/06/04 05:22:55;;;;;;;1.37;1.20;;;18.00;68.30;;;18.57;nan;100797.16;5018741;28;20643;-67
2023/06/04 05:25:22;;;;;;;1.07;1.03;;;18.20;68.10;;;18.90;nan;100798.13;5026176;28;20627;-69
2023/06/04 05:27:50;;;;;;;1.87;0.97;;;18.40;67.40;;;19.18;nan;100798.72;5029822;28;20676;-67
2023/06/04 05:30:17;;;;;;;1.53;1.43;;;18.70;66.60;;;19.28;nan;100805.53;5028073;28;21275;-69
2023/06/04 05:32:44;;;;;;;1.00;0.90;;;18.90;66.00;;;19.48;nan;100803.47;5028027;28;20612;-68
2023/06/04 05:35:11;;;;;;;2.40;1.30;;;19.10;65.70;;;19.73;nan;100802.47;5028956;28;20631;-68
2023/06/04 05:37:40;;;;;;;1.00;1.00;;;19.30;65.60;;;20.01;nan;100805.63;5026408;28;20628;-69
2023/06/04 05:40:09;;;;;;;1.57;1.10;;;19.50;65.20;;;20.17;nan;100808.25;5031271;28;21148;-68
2023/06/04 05:42:36;;;;;;;0.80;0.80;;;19.80;64.50;;;20.39;nan;100807.59;5026882;28;20702;-68
2023/06/04 05:45:08;;;;;;;1.00;0.87;;;19.90;63.90;;;20.54;nan;100807.72;5014196;28;20633;-68
2023/06/04 05:47:34;;;;;;;1.13;0.97;;;20.10;63.50;;;20.82;nan;100809.78;5029286;28;21267;-68
2023/06/04 05:50:02;;;;;;;2.23;0.97;;;20.30;63.40;;;21.12;nan;100812.66;5020164;28;20656;-68
2023/06/04 05:52:29;;;;;;;0.90;0.90;;;20.60;63.00;;;21.33;nan;100816.34;5022467;28;20644;-70
2023/06/04 05:54:56;;;;;;;2.13;1.13;;;20.90;62.60;;;21.55;nan;100820.84;5016979;28;20640;-68
2023/06/04 05:57:23;;;;;;;1.00;0.70;;;21.10;62.30;;;21.79;nan;100832.28;5013065;28;20634;-70
2023/06/04 05:59:50;;;;;;;1.00;1.00;;;21.30;62.00;;;22.01;nan;100829.66;5015821;28;20645;-68
2023/06/04 06:02:17;;;;;;;1.03;1.03;;;21.50;61.00;;;22.18;nan;100823.19;5014953;28;20656;-67
2023/06/04 06:04:44;;;;;;;1.17;1.07;;;21.70;60.40;;;22.42;nan;100824.78;5016067;28;20649;-68
2023/06/04 06:07:11;;;;;;;1.00;1.00;;;21.90;60.30;;;22.60;nan;100822.63;5027935;28;20676;-70
2023/06/04 06:09:38;;;;;;;1.20;1.10;;;22.10;59.60;;;22.88;nan;100826.28;5026334;28;20641;-67
2023/06/04 06:12:06;;;;;;;1.17;1.17;;;22.40;59.40;;;23.19;nan;100827.91;5026544;28;20674;-70
2023/06/04 06:14:33;;;;;;;1.10;1.00;;;22.70;58.60;;;23.34;nan;100828.72;5028661;28;21171;-67
2023/06/04 06:17:02;;;;;;;1.30;1.20;;;22.80;58.30;;;23.57;nan;100837.38;5021272;28;20640;-68
2023/06/04 06:19:30;;;;;;;1.63;1.10;;;23.00;58.20;;;23.87;nan;100838.91;5016479;28;20659;-70
2023/06/04 06:21:58;;;;;;;1.50;1.40;;;23.30;57.70;;;24.11;nan;100840.34;5014419;28;20660;-67
2023/06/04 06:24:25;;;;;;;0.90;0.90;;;23.60;56.90;;;24.27;nan;100834.72;5011846;28;21423;-68
2023/06/04 06:26:52;;;;;;;2.53;1.60;;;23.70;56.90;;;24.67;nan;100842.81;5016097;28;20652;-69
2023/06/04 06:29:19;;;;;;;1.03;0.93;;;24.10;56.40;;;25.31;nan;100843.34;5021955;28;20644;-68
2023/06/04 06:31:47;;;;;;;0.80;0.80;;;24.60;55.10;;;25.80;nan;100848.41;5023700;28;20669;-68
2023/06/04 06:34:14;;;;;;;1.50;1.40;;;25.20;54.10;;;26.10;nan;100840.84;5029147;28;20641;-69
2023/06/04 06:36:41;;;;;;;1.17;1.10;;;25.60;53.80;;;26.57;nan;100851.31;5025606;28;20631;-67
2023/06/04 06:39:09;;;;;;;2.30;1.20;;;26.00;52.80;;;27.16;nan;100856.50;5021601;28;21072;-69
2023/06/04 06:41:38;;;;;;;0.97;0.97;;;26.60;52.20;;;27.45;nan;100855.16;5029654;28;20644;-68
2023/06/04 06:44:05;;;;;;;1.43;1.33;;;26.90;51.80;;;27.75;nan;100858.06;5019890;28;20649;-68
2023/06/04 06:46:32;;;;;;;2.60;1.83;;;27.30;51.50;;;28.13;nan;100861.53;5011442;28;20627;-68
2023/06/04 06:49:00;;;;;;;1.43;1.33;;;27.70;51.00;;;28.40;nan;100869.13;5010435;28;20639;-68
2023/06/04 06:51:27;;;;;;;1.53;1.13;;;27.90;50.40;;;28.79;nan;100870.59;5021602;28;20703;-70
2023/06/04 06:53:53;;;;;;;1.37;1.30;;;28.30;49.40;;;28.87;nan;100875.69;5013781;28;21031;-68
2023/06/04 06:56:20;;;;;;;0.70;0.70;;;28.40;49.30;;;29.41;nan;100872.16;5029228;28;21361;-68
2023/06/04 06:58:51;;;;;;;1.40;1.30;;;29.00;48.40;;;29.87;nan;100866.16;5029835;28;20621;-70
2023/06/04 07:01:18;;;;;;;1.10;1.10;;;29.30;48.40;;;30.31;nan;100873.72;5040411;28;20714;-68
2023/06/04 07:03:45;;;;;;;1.50;1.40;;;29.80;47.80;;;30.92;nan;100870.56;5029839;28;20643;-70
2023/06/04 07:06:12;;;;;;;1.50;1.47;;;30.40;47.40;;;31.02;nan;100865.38;5027656;28;20994;-68
2023/06/04 07:08:40;;;;;;;2.50;1.47;;;30.60;47.20;;;31.58;nan;100871.88;5048604;28;20670;-68
2023/06/04 07:11:11;;;;;;;1.40;1.30;;;31.20;46.70;;;31.99;nan;100875.06;5050737;28;20647;-67
2023/06/04 07:13:39;;;;;;;1.33;1.33;;;31.50;46.50;;;31.93;nan;100867.94;5014789;28;20629;-70
2023/06/04 07:16:06;;;;;;;1.40;1.30;;;31.60;45.90;;;32.02;nan;100871.91;5016026;28;20632;-68
2023/06/04 07:18:33;;;;;;;1.83;1.40;;;31.60;45.60;;;31.88;nan;100865.13;5024215;28;20636;-68
2023/06/04 07:21:00;;;;;;;1.20;1.20;;;31.50;45.30;;;32.19;nan;100876.47;5028000;28;20671;-68
2023/06/04 07:23:27;;;;;;;1.03;1.03;;;31.80;45.50;;;32.87;nan;100879.66;5025945;28;20628;-69
2023/06/04 07:25:55;;;;;;;1.40;1.27;;;32.40;45.20;;;32.83;nan;100878.53;5025909;28;20659;-71
2023/06/04 07:28:22;;;;;;;1.50;1.40;;;32.50;44.50;;;31.71;nan;100869.69;5025264;28;20656;-68
2023/06/04 07:30:50;;;;;;;1.23;1.23;;;31.70;44.80;;;30.83;nan;100861.19;5030938;28;20652;-71
2023/06/04 07:33:17;;;;;;;1.33;1.30;;;30.80;45.60;;;30.74;nan;100856.38;5030903;28;20636;-71
2023/06/04 07:35:44;;;;;;;1.07;1.07;;;30.50;46.00;;;30.48;nan;100863.91;5021218;28;21203;-69
2023/06/04 07:38:11;;;;;;;1.00;1.00;;;30.30;46.10;;;30.46;nan;100860.63;5027903;28;20619;-70
2023/06/04 07:40:38;;;;;;;1.17;1.10;;;30.20;46.30;;;30.73;nan;100860.94;5018662;28;22042;-72
2023/06/04 07:43:05;;;;;;;1.37;1.27;;;30.50;46.20;;;31.23;nan;100861.22;5013671;28;21169;-70
2023/06/04 07:45:32;;;;;;;1.30;1.20;;;30.80;46.10;;;31.90;nan;100871.09;5011301;28;20651;-69
2023/06/04 07:48:02;;;;;;;1.23;1.23;;;31.50;45.10;;;32.08;nan;100875.50;5016944;28;20657;-71
2023/06/04 07:50:29;;;;;;;1.37;1.37;;;31.80;44.50;;;31.14;nan;100866.16;5017058;28;20661;-68
2023/06/04 07:52:59;;;;;;;1.10;1.10;;;31.10;44.30;;;30.75;nan;100860.72;5033259;28;20648;-68
2023/06/04 07:55:26;;;;;;;1.30;1.20;;;30.50;44.80;;;30.96;nan;100863.66;5021735;28;20652;-72
2023/06/04 07:57:53;;;;;;;1.23;1.20;;;30.70;44.70;;;31.21;nan;100860.63;5022676;28;20679;-66
2023/06/04 08:00:20;;;;;;;1.17;1.17;;;30.90;44.60;;;31.19;nan;100871.66;5019980;28;20670;-72
2023/06/04 08:02:48;;;;;;;1.10;1.10;;;31.00;44.60;;;31.95;nan;100863.13;5018898;28;20645;-69
2023/06/04 08:05:15;;;;;;;1.17;1.17;;;31.50;44.40;;;32.77;nan;100860.63;5029108;28;20640;-68
2023/06/04 08:07:43;;;;;;;1.00;1.00;;;32.40;43.90;;;33.40;nan;100865.44;5026877;28;21084;-70
2023/06/04 08:10:10;;;;;;;1.60;1.50;;;33.00;43.60;;;34.05;nan;100865.31;5020354;28;20665;-70
2023/06/04 08:12:37;;;;;;;1.20;1.20;;;33.70;43.00;;;34.59;nan;100869.50;5022484;28;20620;-68
2023/06/04 08:15:05;;;;;;;1.20;1.20;;;34.20;42.00;;;35.40;nan;100864.41;5029097;28;20627;-72
2023/06/04 08:17:32;;;;;;;0.90;0.90;;;35.70;40.50;;;36.33;nan;100877.53;5022739;28;20952;-71
2023/06/04 08:19:59;;;;;;;1.10;1.10;;;36.00;40.60;;;36.62;nan;100874.25;5022186;28;20656;-69
2023/06/04 08:22:27;;;;;;;1.40;1.30;;;36.50;40.10;;;37.06;nan;100875.22;5025199;28;20637;-71
2023/06/04 08:24:55;;;;;;;1.30;1.30;;;37.00;39.80;;;37.41;nan;100866.91;5026427;28;20661;-70
2023/06/04 08:27:22;;;;;;;1.43;1.40;;;37.20;39.60;;;36.76;nan;100873.41;5011993;28;20887;-71
2023/06/04 08:29:49;;;;;;;1.63;1.50;;;36.80;39.50;;;36.36;nan;100871.56;5028057;28;21003;-69
2023/06/04 08:32:16;;;;;;;1.20;1.20;;;36.40;39.60;;;35.94;nan;100879.19;5028882;28;20633;-70
2023/06/04 08:34:43;;;;;;;1.00;1.00;;;35.90;39.90;;;35.93;nan;100869.41;5022227;28;20624;-69
2023/06/04 08:37:10;;;;;;;1.50;1.50;;;35.80;40.20;;;36.61;nan;100875.38;5023570;28;21010;-71
2023/06/04 08:39:37;;;;;;;1.10;1.10;;;36.30;39.80;;;37.33;nan;100872.91;5022078;28;20611;-67
2023/06/04 08:42:09;;;;;;;1.27;1.00;;;37.10;39.40;;;37.77;nan;100876.44;5023299;28;21167;-71
2023/06/04 08:44:36;;;;;;;1.20;1.20;;;37.70;38.90;;;37.88;nan;100878.03;5025486;28;20616;-69
2023/06/04 08:47:05;;;;;;;1.00;1.00;;;37.80;38.90;;;38.37;nan;100875.16;5013699;28;20633;-69
2023/06/04 08:49:36;;;;;;;1.20;1.20;;;38.30;38.50;;;38.73;nan;100876.44;5012179;28;21082;-69
2023/06/04 08:52:03;;;;;;;1.50;1.50;;;38.80;38.20;;;38.99;nan;100874.19;5009542;28;20645;-72
2023/06/04 08:54:32;;;;;;;1.43;1.33;;;39.00;37.60;;;38.66;nan;100883.28;5017507;28;20634;-69
2023/06/04 08:57:00;;;;;;;1.40;1.30;;;38.80;37.50;;;38.71;nan;100875.09;5031420;28;20597;-70
2023/06/04 08:59:28;;;;;;;1.23;1.23;;;38.80;37.30;;;38.13;nan;100876.16;5025857;28;21019;-69
2023/06/04 09:01:56;;;;;;;1.27;1.27;;;38.30;37.80;;;37.91;nan;100876.63;5027848;28;20651;-68
2023/06/04 09:04:27;;;;;;;1.40;1.40;;;38.00;37.90;;;38.16;nan;100872.88;5020005;28;20632;-70
2023/06/04 09:06:55;;;;;;;1.20;1.20;;;38.10;37.90;;;38.67;nan;100882.19;5016346;28;21211;-67
2023/06/04 09:09:23;;;;;;;1.13;1.13;;;38.50;37.60;;;39.32;nan;100886.88;5008710;28;21236;-66
2023/06/04 09:11:56;;;;;;;1.10;1.10;;;39.00;37.30;;;39.95;nan;100878.28;5011568;28;20661;-67
2023/06/04 09:14:24;;;;;;;1.20;1.20;;;39.70;37.00;;;40.62;nan;100887.75;5025502;28;20636;-69
2023/06/04 09:16:58;;;;;;;1.43;1.40;;;40.40;36.80;;;40.69;nan;100886.25;5028989;28;21204;-69
2023/06/04 09:19:25;;;;;;;1.40;1.30;;;40.70;36.50;;;40.94;nan;100885.75;5021285;28;20617;-64
2023/06/04 09:21:58;;;;;;;1.30;1.30;;;40.90;36.40;;;40.93;nan;100880.59;5015936;28;20666;-67
2023/06/04 09:24:47;;;;;;;1.10;1.10;;;41.00;35.80;;;40.39;nan;100884.06;5023410;28;20633;-63
2023/06/04 09:27:17;;;;;;;1.07;1.07;;;40.80;35.70;;;38.54;nan;100867.34;5026712;28;20641;-68
2023/06/04 09:29:54;;;;;;;1.23;1.23;;;39.10;36.10;;;37.01;nan;100867.91;5022319;28;20662;-69
2023/06/04 09:32:29;;;;;;;1.20;1.20;;;37.60;36.70;;;35.34;nan;100863.59;5026395;28;20634;-69
2023/06/04 09:35:12;;;;;;;1.50;1.50;;;35.90;37.70;;;34.22;nan;100866.00;5013823;28;20624;-65
2023/06/04 09:37:41;;;;;;;1.50;1.50;;;34.50;38.90;;;33.88;nan;100859.19;5025658;28;20690;-68
2023/06/04 09:40:09;;;;;;;1.30;1.20;;;33.90;39.50;;;34.08;nan;100856.66;5023969;28;20676;-72
2023/06/04 09:42:53;;;;;;;1.53;1.10;;;34.00;39.50;;;34.41;nan;100847.41;5011103;28;20664;-68
2023/06/04 09:45:32;;;;;;;1.00;1.00;;;34.20;39.80;;;35.47;nan;100849.56;5017116;28;21406;-67
2023/06/04 09:48:00;;;;;;;2.67;1.20;;;35.10;39.30;;;36.78;nan;100873.16;5008281;28;21121;-66
2023/06/04 09:50:36;;;;;;;1.00;1.00;;;36.30;38.60;;;37.92;nan;100846.41;5026909;28;20652;-69
2023/06/04 09:53:25;;;;;;;1.50;1.40;;;37.40;38.10;;;38.45;nan;100854.63;5019107;28;20644;-67
2023/06/04 09:56:01;;;;;;;1.20;1.20;;;38.10;37.60;;;37.91;nan;100844.75;5030984;28;20646;-69
2023/06/04 09:58:28;;;;;;;1.23;1.20;;;37.90;37.00;;;37.21;nan;100840.59;5030694;28;20640;-68
2023/06/04 10:00:58;;;;;;;1.10;1.10;;;37.10;37.30;;;36.96;nan;100840.72;5009127;28;20665;-68
2023/06/04 10:03:27;;;;;;;0.90;0.90;;;36.70;37.70;;;36.41;nan;100841.69;5016414;28;20710;-66
2023/06/04 10:05:57;;;;;;;6.03;0.90;;;36.10;37.70;;;35.95;nan;100842.81;5019121;28;20701;-68
2023/06/04 10:08:27;;;;;;;1.17;1.17;;;35.50;38.30;;;35.41;nan;100828.09;5017511;28;20758;-67
2023/06/04 10:11:00;;;;;;;1.63;1.20;;;34.70;39.00;;;34.93;nan;100830.09;5014616;28;20656;-67
2023/06/04 10:13:40;;;;;;;1.50;1.40;;;34.30;39.00;;;34.71;nan;100823.22;5023205;28;20623;-68
2023/06/04 10:16:08;;;;;;;1.93;1.10;;;33.90;39.60;;;34.18;nan;100825.06;5017943;28;20624;-68
2023/06/04 10:18:41;;;;;;;1.20;1.20;;;33.50;40.00;;;33.59;nan;100837.00;5009414;28;20967;-69
2023/06/04 10:21:10;;;;;;;1.80;1.70;;;33.00;40.80;;;32.65;nan;100822.06;5009925;28;20662;-68
2023/06/04 10:23:37;;;;;;;1.40;1.40;;;32.20;41.50;;;31.47;nan;100818.81;5016465;28;20636;-67
2023/06/04 10:26:05;;;;;;;1.20;1.20;;;31.30;41.90;;;30.52;nan;100816.59;5023659;28;20632;-67
2023/06/04 10:28:33;;;;;;;1.40;1.40;;;30.30;42.90;;;30.08;nan;100814.47;5019476;28;20664;-65
2023/06/04 10:31:00;;;;;;;1.20;1.10;;;29.80;43.60;;;29.86;nan;100816.91;5006512;28;20669;-67
2023/06/04 10:33:28;;;;;;;1.10;1.00;;;29.50;41.50;;;29.81;nan;100819.47;5009713;28;20637;-69